createdAt,value
2019-04-20T00:00:37.103Z,17.20
2019-04-20T00:03:09.693Z,24.50
2019-04-20T00:05:43.427Z,22.90
2019-04-20T00:08:23.389Z,20.10
2019-04-20T00:10:57.027Z,19.80
2019-04-20T00:13:37.872Z,18.90
2019-04-20T00:16:00.014Z,19.53
2019-04-20T00:18:41.092Z,18.87
2019-04-20T00:21:24.802Z,18.97
2019-04-20T00:24:01.031Z,18.17
2019-04-20T00:27:06.474Z,18.03
2019-04-20T00:29:24.893Z,18.03
2019-04-20T00:31:52.329Z,19.97
2019-04-20T00:34:24.756Z,20.17
2019-04-20T00:36:51.959Z,16.23
2019-04-20T00:39:25.864Z,18.30
2019-04-20T00:42:03.426Z,18.13
2019-04-20T00:44:37.358Z,16.77
2019-04-20T00:47:16.912Z,17.73
2019-04-20T00:49:52.754Z,16.33
2019-04-20T00:52:47.187Z,17.17
2019-04-20T00:54:49.950Z,16.67
2019-04-20T00:57:34.696Z,16.87
2019-04-20T01:00:17.613Z,16.67
2019-04-20T01:02:43.362Z,16.20
2019-04-20T01:05:43.266Z,15.27
2019-04-20T01:08:00.587Z,15.70
2019-04-20T01:10:39.500Z,15.27
2019-04-20T01:13:15.070Z,14.23
2019-04-20T01:15:51.595Z,14.17
2019-04-20T01:18:17.580Z,15.30
2019-04-20T01:20:51.389Z,14.03
2019-04-20T01:23:34.075Z,13.83
2019-04-20T01:26:05.507Z,15.33
2019-04-20T01:28:46.815Z,14.60
2019-04-20T01:31:18.448Z,12.20
2019-04-20T01:37:00.972Z,13.83
2019-04-20T01:39:58.615Z,13.73
2019-04-20T01:42:38.291Z,12.83
2019-04-20T01:45:30.797Z,13.67
2019-04-20T01:48:01.233Z,14.33
2019-04-20T01:54:06.292Z,16.17
2019-04-20T01:56:51.982Z,15.13
2019-04-20T01:59:51.756Z,14.33
2019-04-20T02:02:26.072Z,15.33
2019-04-20T02:05:11.465Z,14.67
2019-04-20T02:07:55.412Z,17.10
2019-04-20T02:10:39.526Z,15.50
2019-04-20T02:13:19.865Z,17.07
2019-04-20T02:15:56.365Z,17.93
2019-04-20T02:18:36.465Z,16.43
2019-04-20T02:21:19.647Z,17.90
2019-04-20T02:23:46.219Z,17.90
2019-04-20T02:26:11.108Z,18.57
2019-04-20T02:29:15.797Z,18.33
2019-04-20T02:39:51.404Z,16.57
2019-04-20T02:42:34.239Z,16.00
2019-04-20T02:45:11.207Z,16.27
2019-04-20T02:47:41.289Z,18.93
2019-04-20T02:50:15.141Z,18.70
2019-04-20T02:52:51.033Z,15.13
2019-04-20T02:55:36.384Z,14.13
2019-04-20T03:00:25.111Z,13.83
2019-04-20T03:02:46.123Z,13.27
2019-04-20T03:05:21.625Z,12.90
2019-04-20T03:08:05.252Z,13.60
2019-04-20T03:10:46.352Z,14.20
2019-04-20T03:13:15.425Z,15.97
2019-04-20T03:15:51.886Z,19.43
2019-04-20T03:18:19.313Z,24.63
2019-04-20T03:21:00.818Z,25.37
2019-04-20T03:23:37.228Z,22.93
2019-04-20T03:26:19.059Z,22.93
2019-04-20T03:28:54.092Z,17.17
2019-04-20T03:31:59.583Z,17.17
2019-04-20T03:36:53.759Z,18.97
2019-04-20T03:39:18.084Z,16.83
2019-04-20T03:41:43.064Z,16.30
2019-04-20T03:44:15.649Z,17.17
2019-04-20T03:46:52.240Z,17.13
2019-04-20T03:49:42.302Z,17.20
2019-04-20T03:52:23.341Z,14.23
2019-04-20T03:55:16.435Z,19.37
2019-04-20T03:58:15.307Z,18.53
2019-04-20T04:00:59.924Z,22.03
2019-04-20T04:03:53.384Z,17.23
2019-04-20T04:06:17.781Z,16.70
2019-04-20T04:08:58.709Z,13.80
2019-04-20T04:11:35.119Z,15.63
2019-04-20T04:13:52.525Z,15.33
2019-04-20T04:16:34.172Z,13.53
2019-04-20T04:19:10.025Z,14.90
2019-04-20T04:21:48.946Z,16.20
2019-04-20T04:24:22.592Z,60.33
2019-04-20T04:27:00.765Z,20.53
2019-04-20T04:29:40.128Z,14.97
2019-04-20T04:32:20.665Z,14.20
2019-04-20T04:34:43.277Z,12.67
2019-04-20T04:37:20.363Z,14.00
2019-04-20T04:40:06.099Z,13.57
2019-04-20T04:42:36.627Z,12.83
2019-04-20T04:44:53.686Z,13.23
2019-04-20T04:47:19.835Z,13.67
2019-04-20T04:49:59.966Z,13.00
2019-04-20T04:52:36.030Z,14.70
2019-04-20T04:55:11.268Z,13.93
2019-04-20T04:57:36.691Z,16.73
2019-04-20T05:00:16.647Z,14.27
2019-04-20T05:02:50.633Z,13.57
2019-04-20T05:05:41.359Z,14.37
2019-04-20T05:08:08.823Z,12.40
2019-04-20T05:10:33.015Z,12.57
2019-04-20T05:13:07.135Z,11.77
2019-04-20T05:15:52.542Z,11.53
2019-04-20T05:18:41.788Z,12.57
2019-04-20T05:21:11.837Z,11.53
2019-04-20T05:23:37.522Z,20.90
2019-04-20T05:26:30.998Z,15.47
2019-04-20T05:28:59.098Z,11.17
2019-04-20T05:31:30.906Z,11.17
2019-04-20T05:34:20.571Z,10.63
2019-04-20T05:36:49.273Z,10.53
2019-04-20T05:39:35.137Z,11.10
2019-04-20T05:42:06.179Z,9.67
2019-04-20T05:44:42.747Z,10.87
2019-04-20T05:47:11.311Z,10.40
2019-04-20T05:49:46.797Z,11.90
2019-04-20T05:52:47.227Z,9.73
2019-04-20T05:54:56.238Z,11.07
2019-04-20T05:57:34.923Z,8.60
2019-04-20T06:00:08.336Z,11.40
2019-04-20T06:02:42.161Z,10.47
2019-04-20T06:05:20.924Z,8.83
2019-04-20T06:07:50.595Z,8.33
2019-04-20T06:10:27.395Z,8.47
2019-04-20T06:12:57.843Z,9.23
2019-04-20T06:15:30.878Z,9.10
2019-04-20T06:18:06.623Z,9.20
2019-04-20T06:20:47.844Z,8.53
2019-04-20T06:23:47.487Z,8.80
2019-04-20T06:26:33.538Z,9.37
2019-04-20T06:28:43.874Z,8.20
2019-04-20T06:31:28.212Z,8.43
2019-04-20T06:42:19.339Z,11.77
2019-04-20T06:44:41.191Z,8.27
2019-04-20T06:47:30.686Z,8.83
2019-04-20T06:49:42.463Z,10.60
2019-04-20T06:55:35.008Z,10.77
2019-04-20T06:57:45.069Z,9.80
2019-04-20T07:00:30.803Z,10.13
2019-04-20T07:02:56.409Z,9.67
2019-04-20T07:05:28.547Z,12.70
2019-04-20T07:08:16.670Z,8.57
2019-04-20T07:10:39.377Z,8.60
2019-04-20T07:13:07.718Z,10.20
2019-04-20T07:15:40.186Z,5.97
2019-04-20T07:18:23.371Z,6.90
2019-04-20T07:21:16.096Z,6.70
2019-04-20T07:23:32.745Z,6.17
2019-04-20T07:26:12.737Z,5.83
2019-04-20T07:28:47.533Z,6.07
2019-04-20T07:31:14.128Z,4.80
2019-04-20T07:33:52.171Z,5.33
2019-04-20T07:36:24.441Z,4.70
2019-04-20T07:39:04.210Z,4.03
2019-04-20T07:41:43.339Z,4.10
2019-04-20T07:44:10.205Z,5.33
2019-04-20T07:46:57.906Z,4.77
2019-04-20T07:49:18.138Z,4.60
2019-04-20T07:51:35.573Z,4.20
2019-04-20T07:54:28.493Z,4.97
2019-04-20T07:56:58.711Z,3.70
2019-04-20T07:59:27.268Z,4.00
2019-04-20T08:02:16.236Z,3.73
2019-04-20T08:04:49.974Z,3.73
2019-04-20T08:07:07.402Z,4.10
2019-04-20T08:09:46.511Z,3.87
2019-04-20T08:12:49.906Z,3.80
2019-04-20T08:15:24.007Z,3.43
2019-04-20T08:17:58.594Z,4.40
2019-04-20T08:20:25.812Z,5.27
2019-04-20T08:23:12.329Z,4.03
2019-04-20T08:25:30.583Z,4.27
2019-04-20T08:27:57.088Z,3.90
2019-04-20T08:31:06.576Z,5.60
2019-04-20T08:33:50.286Z,4.57
2019-04-20T08:36:22.863Z,5.13
2019-04-20T08:41:20.573Z,5.40
2019-04-20T08:44:09.842Z,5.43
2019-04-20T08:46:47.004Z,7.03
2019-04-20T08:49:13.208Z,5.70
2019-04-20T08:51:49.780Z,5.70
2019-04-20T08:54:20.102Z,6.17
2019-04-20T08:56:43.345Z,4.83
2019-04-20T08:59:09.498Z,4.50
2019-04-20T09:01:44.493Z,3.33
2019-04-20T09:04:24.232Z,4.30
2019-04-20T09:07:04.009Z,2.80
2019-04-20T09:09:49.502Z,3.63
2019-04-20T09:12:15.860Z,2.57
2019-04-20T09:14:38.488Z,2.67
2019-04-20T09:17:21.211Z,2.62
2019-04-20T09:19:56.904Z,2.42
2019-04-20T09:22:40.960Z,2.80
2019-04-20T09:27:52.383Z,3.00
2019-04-20T09:30:33.153Z,2.10
2019-04-20T09:33:35.999Z,2.30
2019-04-20T09:36:02.352Z,2.15
2019-04-20T09:38:40.822Z,2.33
2019-04-20T09:41:27.560Z,2.50
2019-04-20T09:43:36.867Z,1.80
2019-04-20T09:46:10.272Z,1.80
2019-04-20T09:48:53.593Z,1.85
2019-04-20T09:51:37.849Z,1.90
2019-04-20T09:54:06.465Z,1.90
2019-04-20T09:56:39.500Z,2.27
2019-04-20T09:59:25.137Z,1.87
2019-04-20T10:01:43.674Z,2.22
2019-04-20T10:04:13.011Z,1.82
2019-04-20T10:06:47.557Z,1.90
2019-04-20T10:09:27.990Z,2.30
2019-04-20T10:11:55.404Z,2.02
2019-04-20T10:14:28.912Z,3.22
2019-04-20T10:17:02.193Z,1.82
2019-04-20T10:19:39.121Z,2.02
2019-04-20T10:22:11.125Z,2.20
2019-04-20T10:24:45.937Z,2.15
2019-04-20T10:27:18.746Z,1.95
2019-04-20T10:29:51.615Z,2.25
2019-04-20T10:32:33.080Z,3.15
2019-04-20T10:35:00.831Z,2.55
2019-04-20T10:37:35.484Z,2.33
2019-04-20T10:40:08.689Z,2.02
2019-04-20T10:42:41.858Z,2.42
2019-04-20T10:45:15.042Z,2.40
2019-04-20T10:47:47.795Z,2.00
2019-04-20T10:50:20.976Z,2.45
2019-04-20T10:52:54.043Z,2.55
2019-04-20T10:55:27.266Z,2.00
2019-04-20T10:58:00.130Z,2.90
2019-04-20T11:00:45.914Z,2.83
2019-04-20T11:03:19.739Z,1.87
2019-04-20T11:05:53.043Z,2.12
2019-04-20T11:08:26.578Z,1.65
2019-04-20T11:11:09.282Z,2.30
2019-04-20T11:13:35.270Z,2.45
2019-04-20T11:16:08.597Z,1.87
2019-04-20T11:18:41.604Z,2.10
2019-04-20T11:21:15.468Z,2.10
2019-04-20T11:23:49.928Z,1.60
2019-04-20T11:26:24.364Z,2.27
2019-04-20T11:28:57.982Z,2.10
2019-04-20T11:31:37.398Z,1.85
2019-04-20T11:34:05.975Z,2.00
2019-04-20T11:36:39.213Z,2.52
2019-04-20T11:39:14.587Z,1.98
2019-04-20T11:41:47.697Z,1.90
2019-04-20T11:44:20.370Z,1.85
2019-04-20T11:46:52.895Z,3.30
2019-04-20T11:49:25.771Z,2.15
2019-04-20T11:51:59.492Z,2.17
2019-04-20T11:54:32.511Z,2.20
2019-04-20T11:57:05.348Z,2.08
2019-04-20T11:59:39.081Z,2.12
2019-04-20T12:02:25.027Z,2.50
2019-04-20T12:05:10.034Z,2.52
2019-04-20T12:07:35.229Z,1.90
2019-04-20T12:10:14.842Z,2.95
2019-04-20T12:12:48.687Z,2.27
2019-04-20T12:15:18.833Z,2.10
2019-04-20T12:17:51.690Z,2.10
2019-04-20T12:20:24.991Z,1.40
2019-04-20T12:22:58.164Z,2.47
2019-04-20T12:25:33.331Z,2.08
2019-04-20T12:28:05.725Z,1.90
2019-04-20T12:30:39.756Z,1.67
2019-04-20T12:33:13.577Z,2.15
2019-04-20T12:35:47.657Z,2.10
2019-04-20T12:38:21.068Z,1.60
2019-04-20T12:40:53.950Z,1.98
2019-04-20T12:43:27.763Z,1.90
2019-04-20T12:46:02.091Z,1.72
2019-04-20T12:48:35.522Z,2.20
2019-04-20T12:51:08.235Z,2.72
2019-04-20T12:53:40.866Z,1.87
2019-04-20T12:56:14.654Z,2.12
2019-04-20T12:58:47.525Z,2.22
2019-04-20T13:01:21.993Z,2.95
2019-04-20T13:03:55.338Z,2.22
2019-04-20T13:06:29.925Z,2.45
2019-04-20T13:09:05.701Z,2.02
2019-04-20T13:11:50.753Z,1.80
2019-04-20T13:14:50.591Z,2.58
2019-04-20T13:17:24.110Z,3.00
2019-04-20T13:19:57.507Z,2.12
2019-04-20T13:22:30.865Z,3.35
2019-04-20T13:25:05.260Z,2.20
2019-04-20T13:27:38.889Z,2.70
2019-04-20T13:30:13.225Z,3.30
2019-04-20T13:32:47.799Z,1.85
2019-04-20T13:35:20.660Z,1.98
2019-04-20T13:37:54.134Z,1.75
2019-04-20T13:40:27.985Z,1.72
2019-04-20T13:43:01.672Z,1.90
2019-04-20T13:45:37.030Z,2.10
2019-04-20T13:48:11.016Z,1.95
2019-04-20T13:50:44.228Z,2.27
2019-04-20T13:53:17.078Z,1.67
2019-04-20T13:55:49.984Z,2.30
2019-04-20T13:58:40.639Z,2.22
2019-04-20T14:01:18.834Z,2.72
2019-04-20T14:04:10.413Z,2.10
2019-04-20T14:06:44.070Z,2.20
2019-04-20T14:09:17.194Z,1.62
2019-04-20T14:11:49.741Z,1.85
2019-04-20T14:14:23.440Z,2.27
2019-04-20T14:16:56.985Z,1.92
2019-04-20T14:19:29.530Z,1.95
2019-04-20T14:22:02.315Z,2.02
2019-04-20T14:24:35.055Z,2.17
2019-04-20T14:27:08.794Z,2.95
2019-04-20T14:29:43.112Z,2.05
2019-04-20T14:32:16.820Z,2.12
2019-04-20T14:34:49.566Z,2.02
2019-04-20T14:37:22.685Z,2.42
2019-04-20T14:39:56.443Z,2.20
2019-04-20T14:42:37.380Z,2.20
2019-04-20T14:45:06.766Z,2.27
2019-04-20T14:47:39.623Z,2.20
2019-04-20T14:50:14.025Z,2.90
2019-04-20T14:52:47.231Z,3.27
2019-04-20T14:55:21.148Z,5.67
2019-04-20T14:57:55.466Z,11.48
2019-04-20T15:00:51.009Z,5.53
2019-04-20T15:03:35.408Z,5.92
2019-04-20T15:06:07.444Z,2.17
2019-04-20T15:08:40.780Z,3.55
2019-04-20T15:11:14.789Z,4.42
2019-04-20T15:13:47.225Z,4.33
2019-04-20T15:16:20.339Z,3.02
2019-04-20T15:18:56.460Z,3.02
2019-04-20T15:21:31.484Z,2.80
2019-04-20T15:24:05.501Z,2.92
2019-04-20T15:26:38.690Z,10.70
2019-04-20T15:29:12.511Z,6.50
2019-04-20T15:31:45.975Z,3.65
2019-04-20T15:34:19.177Z,3.08
2019-04-20T15:36:52.033Z,3.10
2019-04-20T15:39:25.280Z,2.85
2019-04-20T15:41:58.886Z,4.40
2019-04-20T15:44:31.648Z,7.22
2019-04-20T15:47:04.254Z,5.75
2019-04-20T15:49:38.023Z,6.05
2019-04-20T15:52:12.425Z,5.97
2019-04-20T15:54:45.567Z,4.35
2019-04-20T15:57:23.293Z,3.85
2019-04-20T15:59:52.755Z,4.12
2019-04-20T16:02:36.356Z,2.98
2019-04-20T16:05:24.396Z,3.70
2019-04-20T16:08:01.956Z,3.25
2019-04-20T16:10:32.903Z,3.67
2019-04-20T16:13:18.219Z,4.78
2019-04-20T16:15:40.021Z,10.48
2019-04-20T16:18:13.469Z,3.47
2019-04-20T16:20:56.603Z,3.70
2019-04-20T16:23:22.743Z,4.78
2019-04-20T16:25:57.637Z,4.35
2019-04-20T16:28:31.933Z,3.52
2019-04-20T16:31:08.031Z,3.12
2019-04-20T16:33:39.628Z,3.67
2019-04-20T16:36:12.429Z,3.12
2019-04-20T16:38:45.610Z,6.00
2019-04-20T16:41:18.596Z,5.10
2019-04-20T16:43:51.693Z,8.80
2019-04-20T16:46:25.692Z,8.95
2019-04-20T16:48:59.038Z,3.70
2019-04-20T16:51:31.765Z,3.20
2019-04-20T16:54:05.684Z,6.25
2019-04-20T16:56:39.890Z,4.45
2019-04-20T16:59:14.215Z,3.47
2019-04-20T17:01:48.512Z,3.30
2019-04-20T17:04:24.017Z,3.25
2019-04-20T17:07:14.269Z,3.05
2019-04-20T17:09:49.672Z,4.60
2019-04-20T17:12:23.758Z,4.78
2019-04-20T17:14:57.796Z,5.67
2019-04-20T17:17:31.505Z,8.83
2019-04-20T17:20:07.215Z,6.78
2019-04-20T17:22:40.359Z,6.28
2019-04-20T17:25:16.315Z,6.60
2019-04-20T17:27:49.167Z,7.92
2019-04-20T17:30:25.544Z,13.45
2019-04-20T17:32:59.978Z,18.98
2019-04-20T17:35:43.507Z,21.05
2019-04-20T17:38:08.851Z,14.05
2019-04-20T17:41:01.539Z,15.97
2019-04-20T17:43:25.215Z,30.02
2019-04-20T17:46:02.212Z,15.23
2019-04-20T17:48:37.172Z,8.55
2019-04-20T17:51:25.418Z,6.25
2019-04-20T17:53:44.962Z,11.20
2019-04-20T17:56:12.003Z,5.37
2019-04-20T17:58:46.092Z,3.75
2019-04-20T18:01:36.060Z,4.07
2019-04-20T18:04:29.663Z,5.10
2019-04-20T18:06:47.871Z,10.47
2019-04-20T18:09:34.409Z,17.57
2019-04-20T18:11:49.975Z,17.95
2019-04-20T18:14:42.103Z,22.03
2019-04-20T18:17:10.444Z,24.67
2019-04-20T18:19:34.711Z,25.33
2019-04-20T18:22:12.298Z,24.60
2019-04-20T18:25:09.161Z,23.13
2019-04-20T18:27:38.350Z,21.83
2019-04-20T18:30:11.932Z,23.17
2019-04-20T18:32:33.701Z,29.17
2019-04-20T18:35:10.393Z,44.30
2019-04-20T18:37:44.189Z,45.53
2019-04-20T18:40:28.977Z,31.23
2019-04-20T18:43:03.959Z,24.30
2019-04-20T18:45:42.390Z,30.43
2019-04-20T18:48:16.030Z,31.93
2019-04-20T18:50:41.872Z,38.23
2019-04-20T18:53:16.657Z,35.77
2019-04-20T18:55:49.576Z,40.37
2019-04-20T18:58:20.388Z,47.87
2019-04-20T19:00:54.182Z,41.57
2019-04-20T19:03:33.725Z,40.53
2019-04-20T19:06:02.201Z,36.83
2019-04-20T19:08:40.507Z,34.27
2019-04-20T19:11:14.368Z,29.77
2019-04-20T19:13:47.760Z,32.87
2019-04-20T19:16:34.773Z,46.60
2019-04-20T19:19:17.905Z,51.13
2019-04-20T19:21:40.277Z,45.63
2019-04-20T19:24:16.290Z,44.07
2019-04-20T19:26:51.530Z,48.17
2019-04-20T19:29:31.300Z,41.67
2019-04-20T19:32:11.552Z,46.50
2019-04-20T19:34:45.412Z,41.97
2019-04-20T19:37:15.900Z,35.77
2019-04-20T19:39:53.258Z,28.87
2019-04-20T19:42:31.806Z,25.47
2019-04-20T19:45:02.019Z,23.93
2019-04-20T19:47:42.931Z,17.23
2019-04-20T19:50:31.308Z,13.93
2019-04-20T19:53:05.759Z,15.97
2019-04-20T19:55:25.853Z,16.97
2019-04-20T19:57:59.375Z,14.00
2019-04-20T20:00:24.873Z,14.77
2019-04-20T20:02:57.731Z,13.67
2019-04-20T20:05:37.435Z,14.67
2019-04-20T20:08:12.812Z,15.37
2019-04-20T20:10:43.744Z,16.43
2019-04-20T20:13:14.977Z,16.00
2019-04-20T20:15:52.589Z,17.40
2019-04-20T20:18:35.355Z,14.63
2019-04-20T20:21:12.379Z,55.27
2019-04-20T20:23:32.165Z,19.50
2019-04-20T20:26:07.184Z,14.77
2019-04-20T20:28:45.472Z,13.67
2019-04-20T20:31:24.557Z,12.43
2019-04-20T20:34:03.042Z,12.70
2019-04-20T20:36:28.939Z,11.77
2019-04-20T20:39:04.506Z,11.77
2019-04-20T20:41:44.939Z,11.53
2019-04-20T20:44:21.207Z,11.93
2019-04-20T20:46:55.337Z,15.53
2019-04-20T20:49:33.172Z,12.67
2019-04-20T20:52:09.792Z,13.60
2019-04-20T20:54:40.412Z,14.27
2019-04-20T20:57:06.877Z,13.73
2019-04-20T20:59:42.982Z,15.17
2019-04-20T21:02:15.845Z,16.30
2019-04-20T21:04:42.160Z,41.80
2019-04-20T21:07:16.337Z,85.40
2019-04-20T21:09:50.409Z,21.70
2019-04-20T21:12:24.899Z,21.93
2019-04-20T21:15:00.279Z,14.03
2019-04-20T21:17:41.727Z,13.97
2019-04-20T21:20:27.591Z,13.00
2019-04-20T21:23:03.875Z,15.23
2019-04-20T21:25:33.470Z,43.07
2019-04-20T21:28:00.616Z,49.60
2019-04-20T21:30:41.152Z,36.10
2019-04-20T21:33:09.432Z,35.57
2019-04-20T21:35:47.044Z,33.70
2019-04-20T21:38:18.542Z,24.97
2019-04-20T21:41:02.129Z,27.87
2019-04-20T21:43:29.939Z,20.90
2019-04-20T21:46:04.586Z,28.77
2019-04-20T21:48:51.821Z,27.87
2019-04-20T21:51:25.732Z,21.57
2019-04-20T21:53:44.164Z,45.87
2019-04-20T21:56:17.726Z,45.70
2019-04-20T21:58:56.577Z,19.17
2019-04-20T22:01:32.350Z,16.07
2019-04-20T22:04:00.496Z,15.07
2019-04-20T22:06:34.259Z,16.37
2019-04-20T22:09:12.600Z,17.70
2019-04-20T22:11:47.477Z,15.77
2019-04-20T22:14:24.272Z,16.57
2019-04-20T22:16:56.828Z,15.80
2019-04-20T22:19:38.756Z,13.80
2019-04-20T22:22:15.139Z,14.43
2019-04-20T22:24:53.921Z,16.83
2019-04-20T22:27:19.739Z,15.77
2019-04-20T22:29:46.540Z,14.37
2019-04-20T22:32:21.855Z,15.40
2019-04-20T22:34:59.882Z,17.83
2019-04-20T22:37:30.496Z,16.10
2019-04-20T22:40:05.194Z,15.33
2019-04-20T22:42:46.538Z,17.60
2019-04-20T22:45:15.473Z,16.57
2019-04-20T22:47:48.175Z,15.80
2019-04-20T22:50:33.971Z,17.57
2019-04-20T22:53:12.359Z,18.87
2019-04-20T22:55:54.915Z,20.43
2019-04-20T22:58:19.437Z,22.80
2019-04-20T23:00:49.065Z,23.60
2019-04-20T23:03:14.606Z,26.47
2019-04-20T23:05:48.912Z,29.97
2019-04-20T23:08:22.414Z,20.30
2019-04-20T23:10:55.629Z,18.57
2019-04-20T23:13:35.121Z,18.57
2019-04-20T23:16:04.437Z,18.57
2019-04-20T23:18:38.230Z,17.00
2019-04-20T23:21:14.379Z,15.50
2019-04-20T23:23:45.712Z,17.17
2019-04-20T23:26:25.550Z,16.37
2019-04-20T23:28:57.080Z,17.87
2019-04-20T23:31:29.079Z,29.17
2019-04-20T23:34:12.378Z,59.47
2019-04-20T23:36:41.729Z,23.90
2019-04-20T23:39:12.865Z,22.13
2019-04-20T23:41:53.727Z,16.53
2019-04-20T23:44:23.115Z,15.27
2019-04-20T23:47:09.747Z,15.23
2019-04-20T23:49:54.145Z,15.47
2019-04-20T23:52:39.019Z,24.40
2019-04-20T23:54:53.609Z,56.57
2019-04-20T23:57:19.825Z,26.20
2019-04-20T23:59:53.781Z,20.17
